sensor_id;sensor_type;location;lat;lon;timestamp;P1;durP1;ratioP1;P2;durP2;ratioP2
10554;SDS011;5326;51.522;7.388;2022-12-07T00:01:45;35.43;;;26.43;;
10554;SDS011;5326;51.522;7.388;2022-12-07T00:04:13;35.37;;;28.53;;
10554;SDS011;5326;51.522;7.388;2022-12-07T00:06:42;33.00;;;28.07;;
10554;SDS011;5326;51.522;7.388;2022-12-07T00:09:14;38.63;;;27.87;;
10554;SDS011;5326;51.522;7.388;2022-12-07T00:11:42;35.53;;;28.40;;
10554;SDS011;5326;51.522;7.388;2022-12-07T00:14:13;34.77;;;28.60;;
10554;SDS011;5326;51.522;7.388;2022-12-07T00:16:42;31.97;;;26.07;;
10554;SDS011;5326;51.522;7.388;2022-12-07T00:19:10;34.70;;;26.37;;
10554;SDS011;5326;51.522;7.388;2022-12-07T00:21:38;35.83;;;26.40;;
10554;SDS011;5326;51.522;7.388;2022-12-07T00:24:06;29.07;;;24.33;;
10554;SDS011;5326;51.522;7.388;2022-12-07T00:26:34;31.87;;;24.37;;
10554;SDS011;5326;51.522;7.388;2022-12-07T00:29:04;36.10;;;25.60;;
10554;SDS011;5326;51.522;7.388;2022-12-07T00:31:33;29.63;;;23.90;;
10554;SDS011;5326;51.522;7.388;2022-12-07T00:34:05;30.00;;;23.20;;
10554;SDS011;5326;51.522;7.388;2022-12-07T00:36:33;30.17;;;23.63;;
10554;SDS011;5326;51.522;7.388;2022-12-07T00:38:59;31.00;;;22.77;;
10554;SDS011;5326;51.522;7.388;2022-12-07T00:41:27;24.63;;;21.60;;
10554;SDS011;5326;51.522;7.388;2022-12-07T00:43:54;27.23;;;21.23;;
10554;SDS011;5326;51.522;7.388;2022-12-07T00:46:21;29.20;;;22.00;;
10554;SDS011;5326;51.522;7.388;2022-12-07T00:48:48;26.67;;;21.67;;
10554;SDS011;5326;51.522;7.388;2022-12-07T00:51:16;28.27;;;22.37;;
10554;SDS011;5326;51.522;7.388;2022-12-07T00:53:44;29.43;;;22.37;;
10554;SDS011;5326;51.522;7.388;2022-12-07T00:56:15;29.67;;;22.20;;
10554;SDS011;5326;51.522;7.388;2022-12-07T00:58:43;25.80;;;21.30;;
10554;SDS011;5326;51.522;7.388;2022-12-07T01:01:10;25.87;;;21.67;;
10554;SDS011;5326;51.522;7.388;2022-12-07T01:03:37;25.43;;;21.20;;
10554;SDS011;5326;51.522;7.388;2022-12-07T01:06:04;25.43;;;19.93;;
10554;SDS011;5326;51.522;7.388;2022-12-07T01:08:31;25.17;;;20.37;;
10554;SDS011;5326;51.522;7.388;2022-12-07T01:11:05;27.63;;;20.63;;
10554;SDS011;5326;51.522;7.388;2022-12-07T01:13:33;27.63;;;19.57;;
10554;SDS011;5326;51.522;7.388;2022-12-07T01:16:01;25.87;;;19.77;;
10554;SDS011;5326;51.522;7.388;2022-12-07T01:18:31;26.97;;;20.97;;
10554;SDS011;5326;51.522;7.388;2022-12-07T01:23:33;24.80;;;20.97;;
10554;SDS011;5326;51.522;7.388;2022-12-07T01:26:03;25.97;;;21.00;;
10554;SDS011;5326;51.522;7.388;2022-12-07T01:28:34;26.27;;;20.83;;
10554;SDS011;5326;51.522;7.388;2022-12-07T01:33:28;24.83;;;21.50;;
10554;SDS011;5326;51.522;7.388;2022-12-07T01:38:29;31.70;;;23.13;;
10554;SDS011;5326;51.522;7.388;2022-12-07T01:40:56;27.37;;;22.07;;
10554;SDS011;5326;51.522;7.388;2022-12-07T01:43:24;26.80;;;22.57;;
10554;SDS011;5326;51.522;7.388;2022-12-07T01:45:52;29.27;;;21.90;;
10554;SDS011;5326;51.522;7.388;2022-12-07T01:48:24;28.73;;;22.73;;
10554;SDS011;5326;51.522;7.388;2022-12-07T01:50:54;29.77;;;22.43;;
10554;SDS011;5326;51.522;7.388;2022-12-07T01:53:23;26.87;;;22.90;;
10554;SDS011;5326;51.522;7.388;2022-12-07T01:55:52;29.67;;;23.07;;
10554;SDS011;5326;51.522;7.388;2022-12-07T01:58:19;28.50;;;22.70;;
10554;SDS011;5326;51.522;7.388;2022-12-07T02:00:46;26.73;;;22.23;;
10554;SDS011;5326;51.522;7.388;2022-12-07T02:05:44;30.20;;;23.17;;
10554;SDS011;5326;51.522;7.388;2022-12-07T02:08:12;28.87;;;23.87;;
10554;SDS011;5326;51.522;7.388;2022-12-07T02:10:40;31.73;;;23.80;;
10554;SDS011;5326;51.522;7.388;2022-12-07T02:13:13;27.43;;;23.47;;
10554;SDS011;5326;51.522;7.388;2022-12-07T02:21:15;27.10;;;22.07;;
10554;SDS011;5326;51.522;7.388;2022-12-07T02:27:34;30.37;;;24.07;;
10554;SDS011;5326;51.522;7.388;2022-12-07T02:35:09;29.17;;;22.93;;
10554;SDS011;5326;51.522;7.388;2022-12-07T02:37:39;29.33;;;24.20;;
10554;SDS011;5326;51.522;7.388;2022-12-07T02:42:53;29.37;;;23.37;;
10554;SDS011;5326;51.522;7.388;2022-12-07T02:45:25;28.10;;;22.87;;
10554;SDS011;5326;51.522;7.388;2022-12-07T02:47:53;27.77;;;23.60;;
10554;SDS011;5326;51.522;7.388;2022-12-07T02:50:21;32.73;;;23.50;;
10554;SDS011;5326;51.522;7.388;2022-12-07T02:52:48;31.10;;;22.20;;
10554;SDS011;5326;51.522;7.388;2022-12-07T02:55:15;31.13;;;22.83;;
10554;SDS011;5326;51.522;7.388;2022-12-07T02:58:06;29.97;;;23.13;;
10554;SDS011;5326;51.522;7.388;2022-12-07T03:00:35;30.90;;;24.07;;
10554;SDS011;5326;51.522;7.388;2022-12-07T03:03:09;29.30;;;23.20;;
10554;SDS011;5326;51.522;7.388;2022-12-07T03:13:42;26.83;;;20.80;;
10554;SDS011;5326;51.522;7.388;2022-12-07T03:16:17;24.97;;;19.87;;
10554;SDS011;5326;51.522;7.388;2022-12-07T03:19:03;30.03;;;20.70;;
10554;SDS011;5326;51.522;7.388;2022-12-07T03:21:56;22.70;;;19.27;;
10554;SDS011;5326;51.522;7.388;2022-12-07T03:27:26;24.83;;;19.20;;
10554;SDS011;5326;51.522;7.388;2022-12-07T03:30:06;22.73;;;19.13;;
10554;SDS011;5326;51.522;7.388;2022-12-07T03:32:36;26.23;;;17.73;;
10554;SDS011;5326;51.522;7.388;2022-12-07T03:35:06;26.77;;;19.73;;
10554;SDS011;5326;51.522;7.388;2022-12-07T03:37:37;23.33;;;18.77;;
10554;SDS011;5326;51.522;7.388;2022-12-07T03:40:16;25.33;;;18.73;;
10554;SDS011;5326;51.522;7.388;2022-12-07T03:42:49;27.00;;;19.37;;
10554;SDS011;5326;51.522;7.388;2022-12-07T03:45:17;26.83;;;20.63;;
10554;SDS011;5326;51.522;7.388;2022-12-07T03:50:52;25.40;;;19.57;;
10554;SDS011;5326;51.522;7.388;2022-12-07T03:53:39;25.87;;;18.73;;
10554;SDS011;5326;51.522;7.388;2022-12-07T03:56:10;44.07;;;30.90;;
10554;SDS011;5326;51.522;7.388;2022-12-07T03:58:37;30.30;;;21.13;;
10554;SDS011;5326;51.522;7.388;2022-12-07T04:01:04;26.23;;;20.40;;
10554;SDS011;5326;51.522;7.388;2022-12-07T04:03:31;23.83;;;19.67;;
10554;SDS011;5326;51.522;7.388;2022-12-07T04:05:58;30.13;;;20.97;;
10554;SDS011;5326;51.522;7.388;2022-12-07T04:08:25;25.13;;;20.03;;
10554;SDS011;5326;51.522;7.388;2022-12-07T04:10:52;28.20;;;21.70;;
10554;SDS011;5326;51.522;7.388;2022-12-07T04:13:18;28.33;;;21.13;;
10554;SDS011;5326;51.522;7.388;2022-12-07T04:15:45;28.50;;;19.73;;
10554;SDS011;5326;51.522;7.388;2022-12-07T04:18:12;27.87;;;20.50;;
10554;SDS011;5326;51.522;7.388;2022-12-07T04:20:38;28.37;;;21.07;;
10554;SDS011;5326;51.522;7.388;2022-12-07T04:23:05;26.90;;;19.83;;
10554;SDS011;5326;51.522;7.388;2022-12-07T04:25:32;22.30;;;18.87;;
10554;SDS011;5326;51.522;7.388;2022-12-07T04:27:59;23.33;;;19.10;;
10554;SDS011;5326;51.522;7.388;2022-12-07T04:30:25;27.33;;;19.07;;
10554;SDS011;5326;51.522;7.388;2022-12-07T04:32:52;24.63;;;18.60;;
10554;SDS011;5326;51.522;7.388;2022-12-07T04:35:19;24.90;;;18.87;;
10554;SDS011;5326;51.522;7.388;2022-12-07T04:37:45;22.90;;;18.70;;
10554;SDS011;5326;51.522;7.388;2022-12-07T04:40:12;23.10;;;19.23;;
10554;SDS011;5326;51.522;7.388;2022-12-07T04:42:40;29.63;;;18.83;;
10554;SDS011;5326;51.522;7.388;2022-12-07T04:45:07;26.00;;;19.73;;
10554;SDS011;5326;51.522;7.388;2022-12-07T04:47:34;27.30;;;18.73;;
10554;SDS011;5326;51.522;7.388;2022-12-07T04:50:00;26.00;;;19.20;;
10554;SDS011;5326;51.522;7.388;2022-12-07T04:52:28;29.77;;;19.67;;
10554;SDS011;5326;51.522;7.388;2022-12-07T04:54:54;25.77;;;17.83;;
10554;SDS011;5326;51.522;7.388;2022-12-07T04:57:21;26.50;;;19.07;;
10554;SDS011;5326;51.522;7.388;2022-12-07T04:59:48;25.80;;;18.53;;
10554;SDS011;5326;51.522;7.388;2022-12-07T05:02:14;24.47;;;18.03;;
10554;SDS011;5326;51.522;7.388;2022-12-07T05:04:41;26.83;;;19.20;;
10554;SDS011;5326;51.522;7.388;2022-12-07T05:07:08;26.77;;;18.40;;
10554;SDS011;5326;51.522;7.388;2022-12-07T05:09:34;24.60;;;17.00;;
10554;SDS011;5326;51.522;7.388;2022-12-07T05:12:01;25.63;;;18.07;;
10554;SDS011;5326;51.522;7.388;2022-12-07T05:14:28;24.83;;;16.60;;
10554;SDS011;5326;51.522;7.388;2022-12-07T05:16:55;21.33;;;16.37;;
10554;SDS011;5326;51.522;7.388;2022-12-07T05:19:22;22.33;;;16.83;;
10554;SDS011;5326;51.522;7.388;2022-12-07T05:21:49;21.03;;;17.50;;
10554;SDS011;5326;51.522;7.388;2022-12-07T05:24:16;22.87;;;16.27;;
10554;SDS011;5326;51.522;7.388;2022-12-07T05:26:43;24.53;;;16.67;;
10554;SDS011;5326;51.522;7.388;2022-12-07T05:29:12;23.37;;;16.27;;
10554;SDS011;5326;51.522;7.388;2022-12-07T05:31:39;22.40;;;16.03;;
10554;SDS011;5326;51.522;7.388;2022-12-07T05:34:06;23.40;;;16.27;;
10554;SDS011;5326;51.522;7.388;2022-12-07T05:36:32;21.33;;;16.13;;
10554;SDS011;5326;51.522;7.388;2022-12-07T05:38:59;23.27;;;16.20;;
10554;SDS011;5326;51.522;7.388;2022-12-07T05:41:26;23.83;;;15.93;;
10554;SDS011;5326;51.522;7.388;2022-12-07T05:44:11;23.67;;;16.33;;
10554;SDS011;5326;51.522;7.388;2022-12-07T05:46:37;19.23;;;15.90;;
10554;SDS011;5326;51.522;7.388;2022-12-07T05:49:04;27.03;;;17.77;;
10554;SDS011;5326;51.522;7.388;2022-12-07T05:51:31;26.90;;;17.17;;
10554;SDS011;5326;51.522;7.388;2022-12-07T05:53:58;24.23;;;17.57;;
10554;SDS011;5326;51.522;7.388;2022-12-07T05:56:24;25.23;;;18.40;;
10554;SDS011;5326;51.522;7.388;2022-12-07T05:58:53;25.00;;;18.63;;
10554;SDS011;5326;51.522;7.388;2022-12-07T06:01:39;29.93;;;19.43;;
10554;SDS011;5326;51.522;7.388;2022-12-07T06:04:06;28.47;;;19.47;;
10554;SDS011;5326;51.522;7.388;2022-12-07T06:06:36;29.40;;;21.20;;
10554;SDS011;5326;51.522;7.388;2022-12-07T06:09:03;30.97;;;19.60;;
10554;SDS011;5326;51.522;7.388;2022-12-07T06:11:29;30.10;;;19.53;;
10554;SDS011;5326;51.522;7.388;2022-12-07T06:14:15;27.73;;;20.10;;
10554;SDS011;5326;51.522;7.388;2022-12-07T06:16:41;27.40;;;19.83;;
10554;SDS011;5326;51.522;7.388;2022-12-07T06:19:08;27.43;;;19.20;;
10554;SDS011;5326;51.522;7.388;2022-12-07T06:21:35;27.77;;;18.10;;
10554;SDS011;5326;51.522;7.388;2022-12-07T06:24:02;28.30;;;18.57;;
10554;SDS011;5326;51.522;7.388;2022-12-07T06:26:29;27.37;;;17.73;;
10554;SDS011;5326;51.522;7.388;2022-12-07T06:28:55;30.37;;;18.10;;
10554;SDS011;5326;51.522;7.388;2022-12-07T06:31:22;27.00;;;18.40;;
10554;SDS011;5326;51.522;7.388;2022-12-07T06:33:49;31.90;;;20.43;;
10554;SDS011;5326;51.522;7.388;2022-12-07T06:36:15;26.00;;;19.27;;
10554;SDS011;5326;51.522;7.388;2022-12-07T06:38:42;30.07;;;19.17;;
10554;SDS011;5326;51.522;7.388;2022-12-07T06:41:09;27.53;;;18.90;;
10554;SDS011;5326;51.522;7.388;2022-12-07T06:43:35;31.00;;;20.70;;
10554;SDS011;5326;51.522;7.388;2022-12-07T06:46:02;27.50;;;19.33;;
10554;SDS011;5326;51.522;7.388;2022-12-07T06:48:28;27.90;;;19.43;;
10554;SDS011;5326;51.522;7.388;2022-12-07T06:50:55;30.53;;;20.30;;
10554;SDS011;5326;51.522;7.388;2022-12-07T06:53:21;27.80;;;18.67;;
10554;SDS011;5326;51.522;7.388;2022-12-07T06:55:48;31.77;;;18.27;;
10554;SDS011;5326;51.522;7.388;2022-12-07T06:58:15;27.03;;;16.80;;
10554;SDS011;5326;51.522;7.388;2022-12-07T07:00:43;23.90;;;16.53;;
10554;SDS011;5326;51.522;7.388;2022-12-07T07:03:10;24.40;;;15.70;;
10554;SDS011;5326;51.522;7.388;2022-12-07T07:05:37;23.37;;;16.93;;
10554;SDS011;5326;51.522;7.388;2022-12-07T07:08:03;18.60;;;14.67;;
10554;SDS011;5326;51.522;7.388;2022-12-07T07:10:47;21.97;;;15.03;;
10554;SDS011;5326;51.522;7.388;2022-12-07T07:13:14;21.80;;;13.73;;
10554;SDS011;5326;51.522;7.388;2022-12-07T07:15:40;21.20;;;14.47;;
10554;SDS011;5326;51.522;7.388;2022-12-07T07:18:07;26.57;;;14.77;;
10554;SDS011;5326;51.522;7.388;2022-12-07T07:20:34;18.93;;;12.63;;
10554;SDS011;5326;51.522;7.388;2022-12-07T07:23:00;20.67;;;12.40;;
10554;SDS011;5326;51.522;7.388;2022-12-07T07:25:27;20.40;;;12.27;;
10554;SDS011;5326;51.522;7.388;2022-12-07T07:27:54;18.17;;;12.13;;
10554;SDS011;5326;51.522;7.388;2022-12-07T07:30:20;22.60;;;12.77;;
10554;SDS011;5326;51.522;7.388;2022-12-07T07:32:47;18.27;;;12.17;;
10554;SDS011;5326;51.522;7.388;2022-12-07T07:35:14;19.83;;;11.60;;
10554;SDS011;5326;51.522;7.388;2022-12-07T07:37:41;19.77;;;11.00;;
10554;SDS011;5326;51.522;7.388;2022-12-07T07:40:08;16.77;;;11.70;;
10554;SDS011;5326;51.522;7.388;2022-12-07T07:42:35;24.83;;;11.40;;
10554;SDS011;5326;51.522;7.388;2022-12-07T07:45:02;18.40;;;10.77;;
10554;SDS011;5326;51.522;7.388;2022-12-07T07:47:29;16.07;;;10.97;;
10554;SDS011;5326;51.522;7.388;2022-12-07T07:49:55;17.53;;;10.97;;
10554;SDS011;5326;51.522;7.388;2022-12-07T07:52:23;20.67;;;11.43;;
10554;SDS011;5326;51.522;7.388;2022-12-07T07:54:49;15.60;;;10.97;;
10554;SDS011;5326;51.522;7.388;2022-12-07T07:57:16;18.63;;;11.40;;
10554;SDS011;5326;51.522;7.388;2022-12-07T07:59:43;18.13;;;10.67;;
10554;SDS011;5326;51.522;7.388;2022-12-07T08:02:14;13.13;;;9.67;;
10554;SDS011;5326;51.522;7.388;2022-12-07T08:04:41;16.00;;;9.37;;
10554;SDS011;5326;51.522;7.388;2022-12-07T08:07:08;16.60;;;9.43;;
10554;SDS011;5326;51.522;7.388;2022-12-07T08:09:35;15.30;;;9.40;;
10554;SDS011;5326;51.522;7.388;2022-12-07T08:12:02;19.43;;;10.83;;
10554;SDS011;5326;51.522;7.388;2022-12-07T08:14:28;18.23;;;10.27;;
10554;SDS011;5326;51.522;7.388;2022-12-07T08:16:55;25.60;;;13.37;;
10554;SDS011;5326;51.522;7.388;2022-12-07T08:19:22;19.40;;;10.17;;
10554;SDS011;5326;51.522;7.388;2022-12-07T08:21:49;19.70;;;8.93;;
10554;SDS011;5326;51.522;7.388;2022-12-07T08:24:16;15.00;;;9.30;;
10554;SDS011;5326;51.522;7.388;2022-12-07T08:26:43;16.43;;;8.83;;
10554;SDS011;5326;51.522;7.388;2022-12-07T08:29:09;17.47;;;9.67;;
10554;SDS011;5326;51.522;7.388;2022-12-07T08:31:36;18.10;;;9.30;;
10554;SDS011;5326;51.522;7.388;2022-12-07T08:34:03;19.23;;;8.63;;
10554;SDS011;5326;51.522;7.388;2022-12-07T08:36:29;19.83;;;9.20;;
10554;SDS011;5326;51.522;7.388;2022-12-07T08:38:56;22.27;;;9.50;;
10554;SDS011;5326;51.522;7.388;2022-12-07T08:41:42;20.83;;;9.30;;
10554;SDS011;5326;51.522;7.388;2022-12-07T08:44:09;17.73;;;8.80;;
10554;SDS011;5326;51.522;7.388;2022-12-07T08:46:44;13.63;;;8.53;;
10554;SDS011;5326;51.522;7.388;2022-12-07T08:49:16;15.67;;;8.90;;
10554;SDS011;5326;51.522;7.388;2022-12-07T08:51:45;17.57;;;8.57;;
10554;SDS011;5326;51.522;7.388;2022-12-07T08:54:13;16.90;;;8.30;;
10554;SDS011;5326;51.522;7.388;2022-12-07T08:56:41;16.87;;;8.23;;
10554;SDS011;5326;51.522;7.388;2022-12-07T08:59:08;18.17;;;8.60;;
10554;SDS011;5326;51.522;7.388;2022-12-07T09:01:35;20.20;;;8.83;;
10554;SDS011;5326;51.522;7.388;2022-12-07T09:04:01;23.17;;;9.07;;
10554;SDS011;5326;51.522;7.388;2022-12-07T09:06:28;20.67;;;9.60;;
10554;SDS011;5326;51.522;7.388;2022-12-07T09:08:56;18.33;;;9.83;;
10554;SDS011;5326;51.522;7.388;2022-12-07T09:11:24;14.80;;;8.53;;
10554;SDS011;5326;51.522;7.388;2022-12-07T09:13:54;19.13;;;9.53;;
10554;SDS011;5326;51.522;7.388;2022-12-07T09:16:21;16.83;;;8.07;;
10554;SDS011;5326;51.522;7.388;2022-12-07T09:18:48;17.63;;;8.17;;
10554;SDS011;5326;51.522;7.388;2022-12-07T09:21:15;16.87;;;8.17;;
10554;SDS011;5326;51.522;7.388;2022-12-07T09:23:43;14.07;;;8.40;;
10554;SDS011;5326;51.522;7.388;2022-12-07T09:26:14;20.83;;;9.03;;
10554;SDS011;5326;51.522;7.388;2022-12-07T09:28:40;17.13;;;7.87;;
10554;SDS011;5326;51.522;7.388;2022-12-07T09:31:07;16.10;;;7.63;;
10554;SDS011;5326;51.522;7.388;2022-12-07T09:33:58;20.70;;;7.60;;
10554;SDS011;5326;51.522;7.388;2022-12-07T09:36:26;15.13;;;7.53;;
10554;SDS011;5326;51.522;7.388;2022-12-07T09:38:53;19.20;;;7.93;;
10554;SDS011;5326;51.522;7.388;2022-12-07T09:41:21;20.07;;;7.80;;
10554;SDS011;5326;51.522;7.388;2022-12-07T09:43:48;18.17;;;8.43;;
10554;SDS011;5326;51.522;7.388;2022-12-07T09:46:16;15.83;;;7.97;;
10554;SDS011;5326;51.522;7.388;2022-12-07T09:48:45;15.47;;;8.07;;
10554;SDS011;5326;51.522;7.388;2022-12-07T09:53:51;16.20;;;9.00;;
10554;SDS011;5326;51.522;7.388;2022-12-07T09:56:19;18.10;;;9.27;;
10554;SDS011;5326;51.522;7.388;2022-12-07T09:58:47;20.47;;;11.10;;
10554;SDS011;5326;51.522;7.388;2022-12-07T10:01:16;21.90;;;11.83;;
10554;SDS011;5326;51.522;7.388;2022-12-07T10:03:47;14.77;;;9.23;;
10554;SDS011;5326;51.522;7.388;2022-12-07T10:06:16;17.73;;;8.70;;
10554;SDS011;5326;51.522;7.388;2022-12-07T10:08:42;16.63;;;9.50;;
10554;SDS011;5326;51.522;7.388;2022-12-07T10:11:10;17.50;;;9.53;;
10554;SDS011;5326;51.522;7.388;2022-12-07T10:13:41;17.73;;;9.40;;
10554;SDS011;5326;51.522;7.388;2022-12-07T10:16:56;20.13;;;9.50;;
10554;SDS011;5326;51.522;7.388;2022-12-07T10:24:57;18.33;;;8.40;;
10554;SDS011;5326;51.522;7.388;2022-12-07T10:27:34;16.83;;;8.90;;
10554;SDS011;5326;51.522;7.388;2022-12-07T10:30:01;15.83;;;8.50;;
10554;SDS011;5326;51.522;7.388;2022-12-07T10:32:34;17.20;;;7.87;;
10554;SDS011;5326;51.522;7.388;2022-12-07T10:37:59;19.07;;;7.40;;
10554;SDS011;5326;51.522;7.388;2022-12-07T10:40:35;16.40;;;6.83;;
10554;SDS011;5326;51.522;7.388;2022-12-07T10:56:33;13.63;;;6.40;;
10554;SDS011;5326;51.522;7.388;2022-12-07T10:59:15;12.80;;;6.13;;
10554;SDS011;5326;51.522;7.388;2022-12-07T11:13:03;12.53;;;6.97;;
10554;SDS011;5326;51.522;7.388;2022-12-07T11:18:21;15.93;;;6.50;;
10554;SDS011;5326;51.522;7.388;2022-12-07T11:24:04;19.50;;;6.97;;
10554;SDS011;5326;51.522;7.388;2022-12-07T11:35:01;12.10;;;6.10;;
10554;SDS011;5326;51.522;7.388;2022-12-07T11:37:49;14.27;;;5.97;;
10554;SDS011;5326;51.522;7.388;2022-12-07T11:43:09;13.13;;;5.77;;
10554;SDS011;5326;51.522;7.388;2022-12-07T11:45:42;13.13;;;6.60;;
10554;SDS011;5326;51.522;7.388;2022-12-07T11:50:51;14.63;;;6.53;;
10554;SDS011;5326;51.522;7.388;2022-12-07T11:53:23;10.73;;;5.77;;
10554;SDS011;5326;51.522;7.388;2022-12-07T11:56:14;11.53;;;5.87;;
10554;SDS011;5326;51.522;7.388;2022-12-07T12:12:15;9.67;;;5.03;;
10554;SDS011;5326;51.522;7.388;2022-12-07T12:26:12;9.17;;;4.27;;
10554;SDS011;5326;51.522;7.388;2022-12-07T12:34:04;12.10;;;4.80;;
10554;SDS011;5326;51.522;7.388;2022-12-07T12:36:56;14.80;;;4.63;;
10554;SDS011;5326;51.522;7.388;2022-12-07T12:39:23;8.00;;;4.70;;
10554;SDS011;5326;51.522;7.388;2022-12-07T12:54:57;8.17;;;3.83;;
10554;SDS011;5326;51.522;7.388;2022-12-07T12:57:30;7.27;;;3.67;;
10554;SDS011;5326;51.522;7.388;2022-12-07T12:59:58;7.47;;;3.00;;
10554;SDS011;5326;51.522;7.388;2022-12-07T13:02:30;10.90;;;5.43;;
10554;SDS011;5326;51.522;7.388;2022-12-07T13:15:44;13.47;;;4.10;;
10554;SDS011;5326;51.522;7.388;2022-12-07T13:18:24;10.10;;;3.07;;
10554;SDS011;5326;51.522;7.388;2022-12-07T13:20:53;8.07;;;2.87;;
10554;SDS011;5326;51.522;7.388;2022-12-07T13:31:45;7.90;;;3.50;;
10554;SDS011;5326;51.522;7.388;2022-12-07T13:34:34;8.87;;;2.73;;
10554;SDS011;5326;51.522;7.388;2022-12-07T13:37:12;7.70;;;3.13;;
10554;SDS011;5326;51.522;7.388;2022-12-07T13:39:46;9.60;;;3.10;;
10554;SDS011;5326;51.522;7.388;2022-12-07T13:42:38;12.37;;;3.50;;
10554;SDS011;5326;51.522;7.388;2022-12-07T13:45:17;11.03;;;3.63;;
10554;SDS011;5326;51.522;7.388;2022-12-07T13:48:10;7.53;;;3.10;;
10554;SDS011;5326;51.522;7.388;2022-12-07T13:51:01;9.57;;;3.07;;
10554;SDS011;5326;51.522;7.388;2022-12-07T13:53:29;10.93;;;3.20;;
10554;SDS011;5326;51.522;7.388;2022-12-07T13:56:00;9.13;;;2.90;;
10554;SDS011;5326;51.522;7.388;2022-12-07T13:58:29;11.33;;;3.13;;
10554;SDS011;5326;51.522;7.388;2022-12-07T14:00:57;11.40;;;3.33;;
10554;SDS011;5326;51.522;7.388;2022-12-07T14:03:28;12.17;;;3.70;;
10554;SDS011;5326;51.522;7.388;2022-12-07T14:06:11;8.00;;;3.23;;
10554;SDS011;5326;51.522;7.388;2022-12-07T14:09:06;7.43;;;3.30;;
10554;SDS011;5326;51.522;7.388;2022-12-07T14:11:34;5.90;;;2.90;;
10554;SDS011;5326;51.522;7.388;2022-12-07T14:14:01;7.57;;;3.30;;
10554;SDS011;5326;51.522;7.388;2022-12-07T14:16:31;11.43;;;3.50;;
10554;SDS011;5326;51.522;7.388;2022-12-07T14:19:00;10.00;;;4.10;;
10554;SDS011;5326;51.522;7.388;2022-12-07T14:21:29;11.57;;;3.33;;
10554;SDS011;5326;51.522;7.388;2022-12-07T14:24:17;6.20;;;3.10;;
10554;SDS011;5326;51.522;7.388;2022-12-07T14:26:48;5.67;;;3.30;;
10554;SDS011;5326;51.522;7.388;2022-12-07T14:31:49;4.90;;;2.40;;
10554;SDS011;5326;51.522;7.388;2022-12-07T14:34:15;10.30;;;3.00;;
10554;SDS011;5326;51.522;7.388;2022-12-07T14:36:42;5.97;;;2.70;;
10554;SDS011;5326;51.522;7.388;2022-12-07T14:39:09;5.17;;;2.90;;
10554;SDS011;5326;51.522;7.388;2022-12-07T14:41:38;6.67;;;3.00;;
10554;SDS011;5326;51.522;7.388;2022-12-07T14:44:22;9.63;;;3.00;;
10554;SDS011;5326;51.522;7.388;2022-12-07T14:46:57;8.40;;;3.30;;
10554;SDS011;5326;51.522;7.388;2022-12-07T14:49:44;13.03;;;3.93;;
10554;SDS011;5326;51.522;7.388;2022-12-07T14:52:17;8.43;;;3.30;;
10554;SDS011;5326;51.522;7.388;2022-12-07T14:55:11;7.43;;;3.47;;
10554;SDS011;5326;51.522;7.388;2022-12-07T14:57:40;8.93;;;3.83;;
10554;SDS011;5326;51.522;7.388;2022-12-07T15:00:06;9.43;;;3.40;;
10554;SDS011;5326;51.522;7.388;2022-12-07T15:02:34;8.57;;;3.40;;
10554;SDS011;5326;51.522;7.388;2022-12-07T15:05:01;7.20;;;3.17;;
10554;SDS011;5326;51.522;7.388;2022-12-07T15:07:28;11.60;;;3.57;;
10554;SDS011;5326;51.522;7.388;2022-12-07T15:09:55;5.13;;;3.20;;
10554;SDS011;5326;51.522;7.388;2022-12-07T15:12:21;9.30;;;3.70;;
10554;SDS011;5326;51.522;7.388;2022-12-07T15:14:49;6.60;;;3.40;;
10554;SDS011;5326;51.522;7.388;2022-12-07T15:17:16;5.87;;;3.23;;
10554;SDS011;5326;51.522;7.388;2022-12-07T15:19:56;7.13;;;3.40;;
10554;SDS011;5326;51.522;7.388;2022-12-07T15:22:23;7.30;;;3.67;;
10554;SDS011;5326;51.522;7.388;2022-12-07T15:24:50;8.17;;;3.47;;
10554;SDS011;5326;51.522;7.388;2022-12-07T15:27:17;6.70;;;3.50;;
10554;SDS011;5326;51.522;7.388;2022-12-07T15:29:43;5.47;;;3.30;;
10554;SDS011;5326;51.522;7.388;2022-12-07T15:32:10;7.27;;;3.60;;
10554;SDS011;5326;51.522;7.388;2022-12-07T15:34:37;6.67;;;4.00;;
10554;SDS011;5326;51.522;7.388;2022-12-07T15:37:06;8.10;;;4.03;;
10554;SDS011;5326;51.522;7.388;2022-12-07T15:39:33;9.27;;;4.03;;
10554;SDS011;5326;51.522;7.388;2022-12-07T15:41:59;8.80;;;4.23;;
10554;SDS011;5326;51.522;7.388;2022-12-07T15:44:26;9.07;;;4.10;;
10554;SDS011;5326;51.522;7.388;2022-12-07T15:47:12;11.17;;;4.43;;
10554;SDS011;5326;51.522;7.388;2022-12-07T15:49:38;7.90;;;3.70;;
10554;SDS011;5326;51.522;7.388;2022-12-07T15:52:05;8.67;;;3.70;;
10554;SDS011;5326;51.522;7.388;2022-12-07T15:54:32;8.70;;;3.77;;
10554;SDS011;5326;51.522;7.388;2022-12-07T15:56:59;12.67;;;3.63;;
10554;SDS011;5326;51.522;7.388;2022-12-07T15:59:26;9.67;;;3.83;;
10554;SDS011;5326;51.522;7.388;2022-12-07T16:01:54;9.27;;;4.13;;
10554;SDS011;5326;51.522;7.388;2022-12-07T16:04:23;8.37;;;3.77;;
10554;SDS011;5326;51.522;7.388;2022-12-07T16:06:49;8.43;;;4.20;;
10554;SDS011;5326;51.522;7.388;2022-12-07T16:09:17;10.43;;;4.20;;
10554;SDS011;5326;51.522;7.388;2022-12-07T16:11:45;16.47;;;4.67;;
10554;SDS011;5326;51.522;7.388;2022-12-07T16:14:11;14.17;;;5.17;;
10554;SDS011;5326;51.522;7.388;2022-12-07T16:16:39;11.77;;;5.20;;
10554;SDS011;5326;51.522;7.388;2022-12-07T16:19:09;12.40;;;4.90;;
10554;SDS011;5326;51.522;7.388;2022-12-07T16:21:37;12.13;;;5.10;;
10554;SDS011;5326;51.522;7.388;2022-12-07T16:24:04;14.57;;;4.90;;
10554;SDS011;5326;51.522;7.388;2022-12-07T16:26:31;12.50;;;5.03;;
10554;SDS011;5326;51.522;7.388;2022-12-07T16:28:58;9.90;;;4.43;;
10554;SDS011;5326;51.522;7.388;2022-12-07T16:31:26;11.60;;;5.23;;
10554;SDS011;5326;51.522;7.388;2022-12-07T16:33:56;19.90;;;6.43;;
10554;SDS011;5326;51.522;7.388;2022-12-07T16:36:23;10.87;;;5.40;;
10554;SDS011;5326;51.522;7.388;2022-12-07T16:39:11;11.80;;;5.40;;
10554;SDS011;5326;51.522;7.388;2022-12-07T16:41:38;10.43;;;5.67;;
10554;SDS011;5326;51.522;7.388;2022-12-07T16:44:06;11.07;;;4.97;;
10554;SDS011;5326;51.522;7.388;2022-12-07T16:46:33;16.33;;;5.90;;
10554;SDS011;5326;51.522;7.388;2022-12-07T16:49:02;15.20;;;5.53;;
10554;SDS011;5326;51.522;7.388;2022-12-07T16:51:29;11.07;;;5.27;;
10554;SDS011;5326;51.522;7.388;2022-12-07T16:53:57;11.20;;;5.10;;
10554;SDS011;5326;51.522;7.388;2022-12-07T16:56:23;8.10;;;4.97;;
10554;SDS011;5326;51.522;7.388;2022-12-07T16:58:53;16.83;;;5.13;;
10554;SDS011;5326;51.522;7.388;2022-12-07T17:01:20;8.90;;;4.73;;
10554;SDS011;5326;51.522;7.388;2022-12-07T17:03:48;12.47;;;5.30;;
10554;SDS011;5326;51.522;7.388;2022-12-07T17:08:43;13.87;;;5.60;;
10554;SDS011;5326;51.522;7.388;2022-12-07T17:11:14;13.37;;;5.00;;
10554;SDS011;5326;51.522;7.388;2022-12-07T17:13:45;11.70;;;4.63;;
10554;SDS011;5326;51.522;7.388;2022-12-07T17:16:31;15.97;;;4.80;;
10554;SDS011;5326;51.522;7.388;2022-12-07T17:18:58;9.27;;;5.00;;
10554;SDS011;5326;51.522;7.388;2022-12-07T17:21:25;8.70;;;4.53;;
10554;SDS011;5326;51.522;7.388;2022-12-07T17:23:51;12.43;;;4.73;;
10554;SDS011;5326;51.522;7.388;2022-12-07T17:26:19;11.80;;;5.07;;
10554;SDS011;5326;51.522;7.388;2022-12-07T17:28:48;9.97;;;4.83;;
10554;SDS011;5326;51.522;7.388;2022-12-07T17:31:16;8.83;;;5.17;;
10554;SDS011;5326;51.522;7.388;2022-12-07T17:33:46;10.73;;;5.20;;
10554;SDS011;5326;51.522;7.388;2022-12-07T17:36:14;11.27;;;5.17;;
10554;SDS011;5326;51.522;7.388;2022-12-07T17:38:50;12.67;;;5.10;;
10554;SDS011;5326;51.522;7.388;2022-12-07T17:44:04;17.73;;;5.30;;
10554;SDS011;5326;51.522;7.388;2022-12-07T17:46:32;13.43;;;5.30;;